Time;durP1;ratioP1;P1;durP2;ratioP2;P2;SDS_P1;SDS_P2;PMS_P1;PMS_P2;Temp;Humidity;BMP_temperature;BMP_pressure;BME280_temperature;BME280_humidity;BME280_pressure;Samples;Min_cycle;Max_cycle;Signal;HPM_P1;HPM_P2
2023/09/24 00:00:35;;;;;;;;;;;;;;;32.50;29.94;98502.69;5011905;28;20444;-81
2023/09/24 00:03:02;;;;;;;;;;;;;;;31.73;31.04;98507.16;5014908;28;19921;-80
2023/09/24 00:05:28;;;;;;;;;;;;;;;31.38;31.68;98512.41;5012222;28;19921;-80
2023/09/24 00:07:54;;;;;;;;;;;;;;;31.70;30.72;98501.63;5014889;28;19914;-80
2023/09/24 00:10:20;;;;;;;;;;;;;;;31.89;30.16;98503.97;4997312;28;19929;-81
2023/09/24 00:12:46;;;;;;;;;;;;;;;31.29;31.46;98503.09;5007973;28;19975;-81
2023/09/24 00:15:12;;;;;;;;;;;;;;;30.42;33.10;98514.91;5012703;28;19925;-80
2023/09/24 00:17:38;;;;;;;;;;;;;;;30.07;33.56;98507.81;5009600;28;19926;-80
2023/09/24 00:20:05;;;;;;;;;;;;;;;30.21;33.63;98504.41;5003875;28;20491;-80
2023/09/24 00:22:31;;;;;;;;;;;;;;;30.97;32.34;98500.88;5013506;28;20005;-80
2023/09/24 00:24:58;;;;;;;;;;;;;;;31.25;31.95;98494.72;5016704;28;19957;-80
2023/09/24 00:27:24;;;;;;;;;;;;;;;31.85;30.74;98500.53;5018005;28;19943;-80
2023/09/24 00:29:50;;;;;;;;;;;;;;;32.26;30.19;98512.38;5012896;28;20019;-81
2023/09/24 00:32:16;;;;;;;;;;;;;;;27.83;37.91;98524.44;5013893;28;19926;-81
2023/09/24 00:34:42;;;;;;;;;;;;;;;29.70;34.08;98511.66;5008014;28;19928;-81
2023/09/24 00:37:09;;;;;;;;;;;;;;;27.45;38.34;98512.25;5006098;28;19992;-81
2023/09/24 00:39:36;;;;;;;;;;;;;;;27.61;37.92;98514.22;5007314;28;19968;-81
2023/09/24 00:42:04;;;;;;;;;;;;;;;28.14;37.21;98513.44;5005753;28;20027;-81
2023/09/24 00:44:30;;;;;;;;;;;;;;;27.22;38.46;98509.66;5003381;28;19928;-81
2023/09/24 00:46:56;;;;;;;;;;;;;;;27.85;37.16;98516.28;5005371;28;20020;-81
2023/09/24 00:49:22;;;;;;;;;;;;;;;26.48;39.13;98511.59;5005267;28;20366;-81
2023/09/24 00:51:49;;;;;;;;;;;;;;;24.94;42.23;98519.31;5012489;28;19929;-81
2023/09/24 00:54:15;;;;;;;;;;;;;;;24.95;42.93;98526.53;5012667;28;19929;-82
2023/09/24 00:56:41;;;;;;;;;;;;;;;24.24;44.11;98538.91;5015063;28;19917;-81
2023/09/24 00:59:08;;;;;;;;;;;;;;;24.07;45.92;98536.38;5008575;28;20448;-81
2023/09/24 01:01:34;;;;;;;;;;;;;;;23.66;45.98;98534.50;5009779;28;20393;-81
2023/09/24 01:04:03;;;;;;;;;;;;;;;24.79;43.25;98532.00;5009264;28;20440;-81
2023/09/24 01:06:30;;;;;;;;;;;;;;;26.26;40.28;98544.31;5011225;28;19928;-81
2023/09/24 01:08:56;;;;;;;;;;;;;;;26.67;38.89;98539.69;5005496;28;20289;-81
2023/09/24 01:11:24;;;;;;;;;;;;;;;26.85;38.90;98533.63;5011704;28;19918;-81
2023/09/24 01:13:50;;;;;;;;;;;;;;;27.77;36.73;98548.78;5004329;28;19922;-81
2023/09/24 01:16:16;;;;;;;;;;;;;;;27.98;36.12;98542.50;5005230;28;20056;-81
2023/09/24 01:18:44;;;;;;;;;;;;;;;25.34;41.19;98552.63;5010897;28;20476;-81
2023/09/24 01:21:11;;;;;;;;;;;;;;;25.56;40.94;98555.06;4998428;28;19928;-81
2023/09/24 01:23:38;;;;;;;;;;;;;;;26.52;39.01;98554.53;5009920;28;20447;-81
2023/09/24 01:26:04;;;;;;;;;;;;;;;26.25;39.16;98566.06;5001159;28;20309;-81
2023/09/24 01:28:30;;;;;;;;;;;;;;;26.28;39.11;98570.78;5004513;28;19921;-81
2023/09/24 01:30:57;;;;;;;;;;;;;;;25.54;40.25;98580.00;5004294;28;20340;-80
2023/09/24 01:33:23;;;;;;;;;;;;;;;26.37;38.64;98579.41;5006806;28;20369;-81
2023/09/24 01:35:49;;;;;;;;;;;;;;;25.84;39.85;98574.97;5007624;28;19944;-81
2023/09/24 01:38:16;;;;;;;;;;;;;;;27.81;36.31;98577.72;5005250;28;19918;-81
2023/09/24 01:40:42;;;;;;;;;;;;;;;27.95;35.61;98571.66;4994089;28;19922;-81
2023/09/24 01:43:08;;;;;;;;;;;;;;;29.18;33.94;98566.91;5011534;28;19921;-81
2023/09/24 01:45:35;;;;;;;;;;;;;;;29.51;33.07;98572.19;5003667;28;19914;-81
2023/09/24 01:48:03;;;;;;;;;;;;;;;30.09;31.98;98587.44;5010515;28;20395;-80
2023/09/24 01:50:32;;;;;;;;;;;;;;;29.23;32.56;98599.47;5014159;28;20377;-80
2023/09/24 01:52:58;;;;;;;;;;;;;;;29.38;32.40;98612.66;5014748;28;19929;-80
2023/09/24 01:55:24;;;;;;;;;;;;;;;29.87;31.22;98615.75;5013965;28;20356;-81
2023/09/24 01:57:51;;;;;;;;;;;;;;;29.36;31.92;98622.84;5014260;28;19929;-81
2023/09/24 02:00:26;;;;;;;;;;;;;;;29.60;31.42;98623.22;5013284;28;19922;-81
2023/09/24 02:02:54;;;;;;;;;;;;;;;29.91;31.16;98624.13;5009202;28;19929;-81
2023/09/24 02:05:20;;;;;;;;;;;;;;;29.69;31.61;98626.13;5007908;28;19922;-81
2023/09/24 02:07:49;;;;;;;;;;;;;;;29.16;32.12;98631.59;5003857;28;19940;-81
2023/09/24 02:10:18;;;;;;;;;;;;;;;28.78;33.00;98633.66;5014582;28;19921;-80
2023/09/24 02:12:45;;;;;;;;;;;;;;;27.99;34.04;98637.28;5015688;28;19974;-80
2023/09/24 02:15:18;;;;;;;;;;;;;;;28.73;32.81;98649.16;5010887;28;19921;-80
2023/09/24 02:17:49;;;;;;;;;;;;;;;27.31;34.82;98650.78;5011101;28;19925;-81
2023/09/24 02:23:02;;;;;;;;;;;;;;;29.20;32.29;98651.28;5014138;28;19969;-80
2023/09/24 02:25:28;;;;;;;;;;;;;;;28.98;32.66;98658.88;5014600;28;20320;-81
2023/09/24 02:27:55;;;;;;;;;;;;;;;29.45;32.12;98659.72;5015934;28;19918;-81
2023/09/24 02:30:22;;;;;;;;;;;;;;;30.43;30.48;98654.56;5015290;28;20343;-80
2023/09/24 02:32:48;;;;;;;;;;;;;;;30.27;30.47;98657.56;5014236;28;19928;-80
2023/09/24 02:35:15;;;;;;;;;;;;;;;30.22;30.48;98661.81;5005875;28;19922;-81
2023/09/24 02:37:42;;;;;;;;;;;;;;;30.54;30.06;98669.88;4996401;28;20377;-81
2023/09/24 02:40:11;;;;;;;;;;;;;;;30.95;29.85;98671.50;5010744;28;20011;-81
2023/09/24 02:42:37;;;;;;;;;;;;;;;31.34;28.86;98682.03;5016279;28;20377;-81
2023/09/24 02:45:07;;;;;;;;;;;;;;;31.58;28.49;98687.94;5014405;28;20060;-81
2023/09/24 02:47:34;;;;;;;;;;;;;;;31.32;28.13;98684.53;5016369;28;19984;-81
2023/09/24 02:50:00;;;;;;;;;;;;;;;30.11;30.32;98681.22;5014743;28;19921;-81
2023/09/24 02:52:27;;;;;;;;;;;;;;;30.15;29.88;98683.94;5019150;28;19926;-81
2023/09/24 02:54:54;;;;;;;;;;;;;;;29.93;30.69;98689.56;5015073;28;19922;-81
2023/09/24 02:57:20;;;;;;;;;;;;;;;30.30;29.91;98691.44;5015348;28;19917;-81
2023/09/24 02:59:46;;;;;;;;;;;;;;;30.88;28.82;98697.31;5016365;28;19948;-81
2023/09/24 03:02:12;;;;;;;;;;;;;;;30.75;29.10;98694.56;5015225;28;20008;-81
2023/09/24 03:04:38;;;;;;;;;;;;;;;30.87;29.31;98697.75;5012472;28;19922;-81
2023/09/24 03:07:07;;;;;;;;;;;;;;;30.72;29.33;98695.50;5010559;28;19921;-81
2023/09/24 03:09:33;;;;;;;;;;;;;;;31.07;28.68;98684.78;5006281;28;19953;-81
2023/09/24 03:11:59;;;;;;;;;;;;;;;31.15;28.62;98688.94;5010146;28;19960;-81
2023/09/24 03:14:25;;;;;;;;;;;;;;;30.68;29.06;98674.19;5006195;28;20366;-81
2023/09/24 03:16:51;;;;;;;;;;;;;;;30.53;29.27;98673.16;5013353;28;19968;-81
2023/09/24 03:19:18;;;;;;;;;;;;;;;30.56;29.38;98678.72;5010667;28;20400;-81
2023/09/24 03:21:44;;;;;;;;;;;;;;;30.66;29.36;98688.06;5014990;28;20384;-81
2023/09/24 03:24:14;;;;;;;;;;;;;;;31.14;28.69;98692.22;5014959;28;19917;-81
2023/09/24 03:26:41;;;;;;;;;;;;;;;31.40;28.65;98700.03;5013070;28;19918;-81
2023/09/24 03:29:07;;;;;;;;;;;;;;;31.57;28.05;98696.94;5015940;28;19922;-81
2023/09/24 03:31:33;;;;;;;;;;;;;;;31.57;28.09;98699.78;5033884;28;19921;-81
2023/09/24 03:33:59;;;;;;;;;;;;;;;31.74;27.93;98703.91;5014853;28;20397;-81
2023/09/24 03:36:25;;;;;;;;;;;;;;;31.94;27.74;98707.84;5012025;28;20301;-81
2023/09/24 03:38:51;;;;;;;;;;;;;;;31.77;27.83;98700.09;5013806;28;20019;-81
2023/09/24 03:41:17;;;;;;;;;;;;;;;31.76;27.98;98707.06;5014293;28;19917;-81
2023/09/24 03:43:43;;;;;;;;;;;;;;;31.80;27.55;98710.53;5013441;28;20025;-81
2023/09/24 03:46:09;;;;;;;;;;;;;;;31.65;27.89;98712.41;5014165;28;20365;-81
2023/09/24 03:48:35;;;;;;;;;;;;;;;31.76;28.05;98707.84;5010816;28;20013;-81
2023/09/24 03:51:02;;;;;;;;;;;;;;;31.89;27.61;98716.22;5014537;28;19921;-81
2023/09/24 03:53:28;;;;;;;;;;;;;;;32.02;27.66;98719.72;5022309;28;19960;-81
2023/09/24 03:55:54;;;;;;;;;;;;;;;32.13;27.28;98716.41;5011407;28;19929;-81
2023/09/24 03:58:19;;;;;;;;;;;;;;;32.22;27.22;98702.19;5009717;28;19928;-81
2023/09/24 04:00:46;;;;;;;;;;;;;;;32.29;27.27;98710.38;5014230;28;19952;-81
2023/09/24 04:03:14;;;;;;;;;;;;;;;32.29;27.40;98713.22;5013641;28;19921;-81
2023/09/24 04:05:40;;;;;;;;;;;;;;;32.28;27.27;98725.88;5013333;28;19925;-82
2023/09/24 04:08:06;;;;;;;;;;;;;;;32.32;27.44;98724.44;5014682;28;19992;-81
2023/09/24 04:10:32;;;;;;;;;;;;;;;32.34;27.36;98723.97;5012836;28;20388;-81
2023/09/24 04:12:59;;;;;;;;;;;;;;;32.34;27.41;98726.81;5013681;28;19917;-81
2023/09/24 04:15:29;;;;;;;;;;;;;;;32.34;27.37;98735.34;5014102;28;19929;-81
2023/09/24 04:17:56;;;;;;;;;;;;;;;32.44;27.00;98728.38;5013117;28;19925;-81
2023/09/24 04:20:22;;;;;;;;;;;;;;;32.45;26.98;98739.28;5008317;28;19952;-81
2023/09/24 04:22:49;;;;;;;;;;;;;;;32.28;26.92;98748.63;5012511;28;19947;-81
2023/09/24 04:25:24;;;;;;;;;;;;;;;32.06;27.28;98757.28;5008262;28;19929;-81
2023/09/24 04:27:50;;;;;;;;;;;;;;;31.68;27.79;98766.19;5013286;28;19929;-82
2023/09/24 04:30:20;;;;;;;;;;;;;;;31.50;28.47;98773.88;5013418;28;19925;-81
2023/09/24 04:32:47;;;;;;;;;;;;;;;31.44;28.42;98772.94;5012619;28;20405;-81
2023/09/24 04:35:14;;;;;;;;;;;;;;;31.47;28.10;98767.09;5013215;28;19917;-81
2023/09/24 04:37:40;;;;;;;;;;;;;;;31.62;28.35;98768.09;5006108;28;19925;-81
2023/09/24 04:40:07;;;;;;;;;;;;;;;31.83;27.66;98764.34;5005969;28;19929;-82
2023/09/24 04:42:34;;;;;;;;;;;;;;;32.00;27.45;98765.66;5000919;28;19929;-81
2023/09/24 04:45:00;;;;;;;;;;;;;;;32.09;27.64;98771.31;4997645;28;19928;-81
2023/09/24 04:47:27;;;;;;;;;;;;;;;32.02;27.25;98779.41;5012197;28;19972;-81
2023/09/24 04:49:53;;;;;;;;;;;;;;;32.00;27.46;98776.22;5013800;28;19925;-81
2023/09/24 04:52:19;;;;;;;;;;;;;;;31.74;27.79;98775.66;5008796;28;19926;-81
2023/09/24 04:54:45;;;;;;;;;;;;;;;31.43;28.36;98769.28;5013621;28;19924;-81
2023/09/24 04:57:11;;;;;;;;;;;;;;;31.19;28.73;98773.88;5013323;28;19921;-81
2023/09/24 04:59:37;;;;;;;;;;;;;;;31.28;29.16;98780.41;5022899;28;19921;-81
2023/09/24 05:02:03;;;;;;;;;;;;;;;31.31;28.77;98787.97;5016183;28;20270;-81
2023/09/24 05:04:29;;;;;;;;;;;;;;;31.54;28.46;98783.81;5007526;28;19922;-81
2023/09/24 05:06:55;;;;;;;;;;;;;;;31.33;28.55;98784.66;5003210;28;19922;-81
2023/09/24 05:09:23;;;;;;;;;;;;;;;31.16;29.13;98784.13;5010601;28;20381;-81
2023/09/24 05:11:49;;;;;;;;;;;;;;;31.01;29.12;98790.84;5020099;28;20301;-82
2023/09/24 05:14:15;;;;;;;;;;;;;;;31.09;29.21;98792.13;5008214;28;19928;-81
2023/09/24 05:16:41;;;;;;;;;;;;;;;30.86;29.73;98786.91;5003631;28;20415;-81
2023/09/24 05:19:07;;;;;;;;;;;;;;;31.00;29.60;98792.06;5000557;28;20000;-82
2023/09/24 05:21:33;;;;;;;;;;;;;;;31.36;28.84;98795.09;5007120;28;20030;-81
2023/09/24 05:23:59;;;;;;;;;;;;;;;31.73;28.89;98801.72;5002198;28;19961;-81
2023/09/24 05:26:26;;;;;;;;;;;;;;;31.85;28.09;98800.78;5003887;28;20427;-81
2023/09/24 05:28:52;;;;;;;;;;;;;;;31.92;28.47;98803.34;5007997;28;19921;-81
2023/09/24 05:31:18;;;;;;;;;;;;;;;31.83;28.16;98809.78;5010122;28;20439;-81
2023/09/24 05:33:44;;;;;;;;;;;;;;;31.59;28.72;98811.59;5009073;28;19965;-81
2023/09/24 05:36:11;;;;;;;;;;;;;;;31.56;28.97;98811.75;5011306;28;19928;-82
2023/09/24 05:38:37;;;;;;;;;;;;;;;31.87;28.59;98803.94;5014233;28;19959;-81
2023/09/24 05:41:05;;;;;;;;;;;;;;;32.18;28.14;98809.56;5011500;28;19925;-82
2023/09/24 05:43:31;;;;;;;;;;;;;;;32.44;27.59;98816.53;5006904;28;19968;-81
2023/09/24 05:45:57;;;;;;;;;;;;;;;32.64;27.44;98820.47;5004188;28;19925;-84
2023/09/24 05:48:23;;;;;;;;;;;;;;;32.69;27.58;98824.75;5010672;28;19933;-82
2023/09/24 05:50:49;;;;;;;;;;;;;;;32.74;27.36;98824.09;5012209;28;19922;-83
2023/09/24 05:53:16;;;;;;;;;;;;;;;32.74;27.75;98813.50;5013715;28;20397;-83
2023/09/24 05:55:52;;;;;;;;;;;;;;;32.86;27.57;98802.44;5009102;28;19968;-82
2023/09/24 05:58:17;;;;;;;;;;;;;;;32.96;27.58;98798.28;5004047;28;20270;-82
2023/09/24 06:00:45;;;;;;;;;;;;;;;32.82;27.62;98799.75;5009083;28;19929;-83
2023/09/24 06:03:13;;;;;;;;;;;;;;;32.55;27.64;98802.63;5010488;28;19922;-83
2023/09/24 06:05:39;;;;;;;;;;;;;;;32.21;27.99;98814.31;5007928;28;19963;-83
2023/09/24 06:08:05;;;;;;;;;;;;;;;32.12;28.33;98812.22;5010600;28;19930;-83
2023/09/24 06:10:32;;;;;;;;;;;;;;;32.21;28.38;98815.06;5014601;28;20385;-83
2023/09/24 06:12:58;;;;;;;;;;;;;;;32.35;28.37;98813.69;5006222;28;19928;-85
2023/09/24 06:15:24;;;;;;;;;;;;;;;32.63;28.08;98830.25;5005640;28;19921;-85
2023/09/24 06:17:50;;;;;;;;;;;;;;;32.72;27.42;98838.03;5006129;28;19925;-83
2023/09/24 06:20:16;;;;;;;;;;;;;;;32.89;27.63;98835.59;5005828;28;20019;-84
2023/09/24 06:22:43;;;;;;;;;;;;;;;32.92;27.25;98831.81;5012721;28;19929;-84
2023/09/24 06:25:09;;;;;;;;;;;;;;;32.60;27.97;98836.13;5006154;28;19952;-84
2023/09/24 06:27:35;;;;;;;;;;;;;;;32.62;27.37;98840.06;5015334;28;20042;-83
2023/09/24 06:30:04;;;;;;;;;;;;;;;32.70;27.53;98846.22;5002781;28;19933;-83
2023/09/24 06:32:30;;;;;;;;;;;;;;;32.40;27.28;98847.94;4999855;28;19929;-82
2023/09/24 06:34:56;;;;;;;;;;;;;;;32.57;28.23;98859.81;5008895;28;19930;-83
2023/09/24 06:37:22;;;;;;;;;;;;;;;32.85;28.05;98864.22;5011495;28;19922;-83
2023/09/24 06:39:48;;;;;;;;;;;;;;;33.13;27.71;98874.34;5003491;28;19929;-82
2023/09/24 06:42:13;;;;;;;;;;;;;;;33.08;26.44;98872.13;4998186;28;19922;-82
2023/09/24 06:44:39;;;;;;;;;;;;;;;32.90;27.00;98862.81;5010385;28;19921;-82
2023/09/24 06:47:06;;;;;;;;;;;;;;;32.88;27.10;98868.97;5013769;28;19925;-83
2023/09/24 06:49:32;;;;;;;;;;;;;;;32.70;27.83;98881.13;5013367;28;19944;-82
2023/09/24 06:51:58;;;;;;;;;;;;;;;32.79;26.79;98874.69;5010533;28;19972;-83
2023/09/24 06:54:25;;;;;;;;;;;;;;;32.59;27.96;98877.19;5010656;28;20023;-83
2023/09/24 06:56:51;;;;;;;;;;;;;;;32.70;27.17;98875.44;5011407;28;19921;-83
2023/09/24 06:59:17;;;;;;;;;;;;;;;32.59;27.32;98888.56;5010316;28;19971;-83
2023/09/24 07:01:43;;;;;;;;;;;;;;;32.62;27.22;98894.13;5010289;28;19925;-83
2023/09/24 07:04:09;;;;;;;;;;;;;;;32.70;27.31;98898.22;5006015;28;19943;-83
2023/09/24 07:06:35;;;;;;;;;;;;;;;33.02;27.39;98899.66;5009477;28;19921;-83
2023/09/24 07:09:02;;;;;;;;;;;;;;;33.31;27.56;98905.59;5010032;28;19956;-83
2023/09/24 07:11:34;;;;;;;;;;;;;;;33.38;27.17;98910.16;5004748;28;20293;-82
2023/09/24 07:14:01;;;;;;;;;;;;;;;33.50;27.58;98914.88;5005697;28;19944;-82
2023/09/24 07:16:27;;;;;;;;;;;;;;;33.60;27.62;98915.69;5015074;28;19917;-83
2023/09/24 07:18:54;;;;;;;;;;;;;;;33.67;27.24;98915.34;5009556;28;20404;-83
2023/09/24 07:21:21;;;;;;;;;;;;;;;33.67;27.11;98918.97;5002427;28;20301;-82
2023/09/24 07:23:49;;;;;;;;;;;;;;;33.71;26.82;98924.50;5004891;28;19930;-83
2023/09/24 07:26:15;;;;;;;;;;;;;;;33.77;26.54;98926.22;5011524;28;20322;-83
2023/09/24 07:28:41;;;;;;;;;;;;;;;33.61;26.76;98931.50;5008273;28;20412;-83
2023/09/24 07:31:21;;;;;;;;;;;;;;;33.34;26.95;98941.66;4998798;28;19929;-82
2023/09/24 07:33:51;;;;;;;;;;;;;;;33.41;27.24;98940.53;5005234;28;19965;-83
2023/09/24 07:36:18;;;;;;;;;;;;;;;33.48;27.15;98943.06;5001951;28;19921;-82
2023/09/24 07:38:44;;;;;;;;;;;;;;;33.48;26.67;98947.97;5011066;28;19921;-82
2023/09/24 07:41:11;;;;;;;;;;;;;;;33.39;27.26;98943.88;4998397;28;20012;-82
2023/09/24 07:43:38;;;;;;;;;;;;;;;33.46;27.02;98948.44;5004396;28;19921;-82
2023/09/24 07:46:04;;;;;;;;;;;;;;;33.34;26.96;98950.22;5000461;28;19976;-82
2023/09/24 07:48:33;;;;;;;;;;;;;;;33.25;27.50;98953.06;5002219;28;19921;-83
2023/09/24 07:50:59;;;;;;;;;;;;;;;33.35;27.80;98939.63;5009945;28;20035;-82
2023/09/24 07:53:25;;;;;;;;;;;;;;;33.50;27.87;98942.56;5005393;28;20411;-82
2023/09/24 07:56:08;;;;;;;;;;;;;;;33.51;27.30;98947.81;5003492;28;19956;-81
2023/09/24 07:58:35;;;;;;;;;;;;;;;33.27;27.44;98949.75;4999379;28;19969;-82
2023/09/24 08:01:04;;;;;;;;;;;;;;;32.87;27.51;98935.66;5004808;28;19926;-82
2023/09/24 08:03:30;;;;;;;;;;;;;;;32.81;27.28;98939.63;5004751;28;19964;-82
2023/09/24 08:05:57;;;;;;;;;;;;;;;32.57;28.16;98934.53;5010910;28;19926;-82
2023/09/24 08:08:23;;;;;;;;;;;;;;;32.57;27.76;98936.59;5005474;28;20284;-83
2023/09/24 08:10:50;;;;;;;;;;;;;;;32.48;28.17;98943.03;5000488;28;19921;-82
2023/09/24 08:13:17;;;;;;;;;;;;;;;32.34;28.45;98943.66;4998910;28;19932;-82
2023/09/24 08:15:43;;;;;;;;;;;;;;;32.30;28.54;98950.75;5000582;28;19928;-83
2023/09/24 08:18:11;;;;;;;;;;;;;;;32.21;28.29;98962.84;4998200;28;20282;-83
2023/09/24 08:20:37;;;;;;;;;;;;;;;31.94;28.61;98966.38;5007202;28;19921;-82
2023/09/24 08:23:03;;;;;;;;;;;;;;;32.08;29.01;98968.66;5016722;28;19918;-82
2023/09/24 08:25:30;;;;;;;;;;;;;;;32.14;28.72;98960.31;5017182;28;19953;-82
2023/09/24 08:27:56;;;;;;;;;;;;;;;32.04;28.95;98961.56;5009643;28;20468;-83
2023/09/24 08:30:22;;;;;;;;;;;;;;;31.94;28.74;98963.53;5005608;28;20025;-83
2023/09/24 08:32:48;;;;;;;;;;;;;;;32.17;28.71;98967.09;5003049;28;20245;-83
2023/09/24 08:35:14;;;;;;;;;;;;;;;32.28;28.61;98964.63;5011060;28;19922;-83
2023/09/24 08:37:40;;;;;;;;;;;;;;;32.26;28.56;98953.72;5006467;28;20392;-82
2023/09/24 08:40:09;;;;;;;;;;;;;;;31.94;28.16;98960.69;5004473;28;20293;-82
2023/09/24 08:42:36;;;;;;;;;;;;;;;31.75;28.98;98958.22;5018789;28;19921;-83
2023/09/24 08:45:06;;;;;;;;;;;;;;;31.81;29.22;98962.81;5019421;28;19929;-82
2023/09/24 08:47:33;;;;;;;;;;;;;;;31.64;28.95;98975.69;5009639;28;19936;-83
2023/09/24 08:50:02;;;;;;;;;;;;;;;31.43;29.40;98968.00;5017175;28;19984;-83
2023/09/24 08:52:29;;;;;;;;;;;;;;;31.21;29.33;98967.97;5013441;28;19929;-83
2023/09/24 08:54:55;;;;;;;;;;;;;;;30.97;29.33;98974.56;5017163;28;20015;-82
2023/09/24 08:57:21;;;;;;;;;;;;;;;31.12;29.69;98967.09;5020904;28;20397;-83
2023/09/24 08:59:47;;;;;;;;;;;;;;;31.07;30.06;98965.66;5015162;28;19966;-83
2023/09/24 09:02:13;;;;;;;;;;;;;;;31.19;30.21;98966.84;5016993;28;20020;-83
2023/09/24 09:04:46;;;;;;;;;;;;;;;31.56;30.37;98970.72;5020453;28;19990;-83
2023/09/24 09:07:12;;;;;;;;;;;;;;;32.14;30.02;98965.22;5019913;28;19921;-83
2023/09/24 09:09:39;;;;;;;;;;;;;;;32.52;28.89;98962.81;5016135;28;20508;-84
2023/09/24 09:12:17;;;;;;;;;;;;;;;32.23;28.81;98965.25;5021462;28;19967;-83
2023/09/24 09:14:43;;;;;;;;;;;;;;;31.95;29.21;98965.09;5021527;28;20015;-83
2023/09/24 09:17:09;;;;;;;;;;;;;;;31.80;30.65;98944.22;5014818;28;20386;-83
2023/09/24 09:19:46;;;;;;;;;;;;;;;32.04;29.28;98956.63;5034133;28;20407;-83
2023/09/24 09:22:16;;;;;;;;;;;;;;;32.18;29.81;98957.34;5024978;28;19933;-83
2023/09/24 09:24:42;;;;;;;;;;;;;;;31.44;29.46;98957.44;5019475;28;19957;-83
2023/09/24 09:27:08;;;;;;;;;;;;;;;31.18;29.80;98962.44;5013261;28;20452;-83
2023/09/24 09:29:37;;;;;;;;;;;;;;;30.94;30.20;98970.59;5023001;28;19921;-83
2023/09/24 09:32:03;;;;;;;;;;;;;;;31.41;30.27;98965.56;5019207;28;20008;-84
2023/09/24 09:34:29;;;;;;;;;;;;;;;32.05;29.24;98960.28;5017744;28;20019;-83
2023/09/24 09:37:13;;;;;;;;;;;;;;;32.34;29.00;98965.59;5022189;28;20415;-83
2023/09/24 09:39:40;;;;;;;;;;;;;;;32.29;29.22;98977.56;5009347;28;20397;-84
2023/09/24 09:42:06;;;;;;;;;;;;;;;32.50;28.39;98980.34;5021272;28;19921;-83
2023/09/24 09:44:33;;;;;;;;;;;;;;;30.05;31.57;98986.94;5016744;28;19922;-84
2023/09/24 09:47:01;;;;;;;;;;;;;;;29.92;31.06;98980.44;5012495;28;19925;-84
2023/09/24 09:49:31;;;;;;;;;;;;;;;30.08;30.69;98986.00;5013149;28;20039;-84
2023/09/24 09:52:00;;;;;;;;;;;;;;;30.16;31.41;98983.75;5011993;28;19942;-84
2023/09/24 09:54:30;;;;;;;;;;;;;;;31.02;30.38;98988.91;5021201;28;20302;-84
2023/09/24 09:56:56;;;;;;;;;;;;;;;31.11;31.34;98991.06;5016784;28;19932;-85
2023/09/24 09:59:23;;;;;;;;;;;;;;;30.31;30.29;98999.03;5018658;28;19988;-84
2023/09/24 10:01:49;;;;;;;;;;;;;;;31.38;29.95;98999.78;5014162;28;19956;-84
2023/09/24 10:04:15;;;;;;;;;;;;;;;31.92;29.30;98990.81;5019723;28;19944;-85
2023/09/24 10:06:41;;;;;;;;;;;;;;;31.69;28.88;99000.66;5014456;28;20632;-85
2023/09/24 10:09:26;;;;;;;;;;;;;;;31.49;29.64;98999.38;5016382;28;19933;-84
2023/09/24 10:11:53;;;;;;;;;;;;;;;31.63;29.40;99005.31;5019216;28;19921;-84
2023/09/24 10:14:38;;;;;;;;;;;;;;;31.77;30.14;99001.94;5015151;28;19932;-85
2023/09/24 10:17:21;;;;;;;;;;;;;;;32.08;29.67;98999.13;5016591;28;19933;-85
2023/09/24 10:19:53;;;;;;;;;;;;;;;31.85;29.10;99003.25;5019304;28;19921;-85
2023/09/24 10:22:29;;;;;;;;;;;;;;;32.46;28.13;98998.78;5018190;28;19921;-85
2023/09/24 10:24:55;;;;;;;;;;;;;;;32.51;28.32;99003.91;5017263;28;20003;-85
2023/09/24 10:27:25;;;;;;;;;;;;;;;32.20;28.94;99008.81;5019114;28;20015;-84
2023/09/24 10:29:53;;;;;;;;;;;;;;;32.06;29.17;99001.66;5012533;28;20408;-84
2023/09/24 10:32:21;;;;;;;;;;;;;;;32.37;29.06;99007.28;5016100;28;20380;-84
2023/09/24 10:34:57;;;;;;;;;;;;;;;32.45;27.75;99011.41;5012332;28;21146;-84
2023/09/24 10:37:23;;;;;;;;;;;;;;;31.98;29.30;99006.03;5020986;28;19933;-84
2023/09/24 10:40:20;;;;;;;;;;;;;;;32.23;28.27;99002.97;5011053;28;19921;-84
2023/09/24 10:43:05;;;;;;;;;;;;;;;32.90;27.78;99003.00;5013533;28;19936;-85
2023/09/24 10:45:31;;;;;;;;;;;;;;;32.76;28.56;99003.63;5012955;28;19930;-83
2023/09/24 10:48:01;;;;;;;;;;;;;;;33.00;27.52;99004.56;5006924;28;19968;-83
2023/09/24 10:50:27;;;;;;;;;;;;;;;32.91;27.56;98998.88;5009947;28;20338;-84
2023/09/24 10:53:06;;;;;;;;;;;;;;;32.71;28.38;98995.72;5021212;28;19944;-82
2023/09/24 10:55:34;;;;;;;;;;;;;;;32.72;28.29;98998.06;5010273;28;19988;-81
2023/09/24 10:58:04;;;;;;;;;;;;;;;31.61;28.42;99004.22;5016111;28;19929;-82
2023/09/24 11:00:31;;;;;;;;;;;;;;;31.63;28.95;99002.50;5011716;28;19927;-82
2023/09/24 11:02:58;;;;;;;;;;;;;;;31.78;30.27;99000.69;5016736;28;19925;-83
2023/09/24 11:05:25;;;;;;;;;;;;;;;31.82;29.96;99006.22;5013202;28;19922;-83
2023/09/24 11:07:51;;;;;;;;;;;;;;;32.19;30.11;99004.38;5002471;28;20397;-83
2023/09/24 11:10:18;;;;;;;;;;;;;;;32.77;28.97;98990.97;5007798;28;19926;-83
2023/09/24 11:12:48;;;;;;;;;;;;;;;32.33;30.27;98998.09;5003094;28;20011;-83
2023/09/24 11:15:14;;;;;;;;;;;;;;;32.73;29.50;98982.59;5002386;28;19929;-83
2023/09/24 11:17:41;;;;;;;;;;;;;;;31.97;30.43;98993.84;5005347;28;19925;-83
2023/09/24 11:20:07;;;;;;;;;;;;;;;31.48;29.72;98987.25;5002114;28;19922;-83
2023/09/24 11:22:33;;;;;;;;;;;;;;;31.77;29.41;98992.63;5007893;28;19922;-83
2023/09/24 11:25:07;;;;;;;;;;;;;;;32.08;30.01;98988.56;5008740;28;19948;-83
2023/09/24 11:27:36;;;;;;;;;;;;;;;32.03;28.89;98994.84;5006763;28;20291;-83
2023/09/24 11:30:03;;;;;;;;;;;;;;;31.61;29.60;98999.31;5006028;28;19922;-83
2023/09/24 11:32:29;;;;;;;;;;;;;;;31.53;31.38;98991.56;5002338;28;19921;-83
2023/09/24 11:35:06;;;;;;;;;;;;;;;31.29;30.18;98986.31;5005205;28;19922;-83
2023/09/24 11:37:47;;;;;;;;;;;;;;;31.32;30.50;98993.13;5005022;28;19925;-83
2023/09/24 11:40:39;;;;;;;;;;;;;;;31.18;29.25;98985.91;5010192;28;19928;-83
2023/09/24 11:43:15;;;;;;;;;;;;;;;31.32;30.30;98988.22;5000588;28;19921;-82
2023/09/24 11:45:48;;;;;;;;;;;;;;;31.69;29.43;98982.81;5008345;28;20071;-82
2023/09/24 11:48:18;;;;;;;;;;;;;;;32.18;29.76;98975.19;5003906;28;19930;-82
2023/09/24 11:50:48;;;;;;;;;;;;;;;31.48;29.63;98981.59;5009235;28;19926;-82
2023/09/24 11:53:14;;;;;;;;;;;;;;;31.44;30.17;98992.25;4998802;28;19921;-82
2023/09/24 11:55:41;;;;;;;;;;;;;;;32.11;30.18;99006.72;5008839;28;19993;-82
2023/09/24 11:58:07;;;;;;;;;;;;;;;32.63;28.68;98994.41;5007235;28;19926;-82
2023/09/24 12:00:36;;;;;;;;;;;;;;;32.20;28.94;98997.44;5010861;28;19921;-84
2023/09/24 12:03:09;;;;;;;;;;;;;;;32.00;28.44;98998.63;5010871;28;19921;-84
2023/09/24 12:05:35;;;;;;;;;;;;;;;32.26;28.99;98993.50;5010968;28;19922;-84
2023/09/24 12:08:03;;;;;;;;;;;;;;;33.14;28.42;98995.44;5012209;28;19933;-84
2023/09/24 12:10:29;;;;;;;;;;;;;;;32.51;27.91;99006.75;5008680;28;19983;-84
2023/09/24 12:13:01;;;;;;;;;;;;;;;31.99;28.79;99010.47;5010585;28;19928;-84
2023/09/24 12:15:28;;;;;;;;;;;;;;;32.07;28.79;99006.84;5007770;28;19925;-85
2023/09/24 12:17:56;;;;;;;;;;;;;;;32.20;28.56;99003.91;4998531;28;19922;-85
2023/09/24 12:20:22;;;;;;;;;;;;;;;31.79;29.23;99007.16;4999822;28;19948;-85
2023/09/24 12:22:48;;;;;;;;;;;;;;;31.44;29.18;99003.63;5000639;28;19922;-86
2023/09/24 12:25:14;;;;;;;;;;;;;;;31.12;29.77;99004.78;5003112;28;19922;-86
2023/09/24 12:27:40;;;;;;;;;;;;;;;31.31;30.26;99000.03;5004076;28;20012;-86
2023/09/24 12:30:08;;;;;;;;;;;;;;;32.29;28.34;99003.16;5002993;28;19925;-85
2023/09/24 12:32:34;;;;;;;;;;;;;;;32.25;28.78;99009.00;4988470;28;19972;-85
2023/09/24 12:35:02;;;;;;;;;;;;;;;32.45;28.91;99002.88;5010501;28;19972;-86
2023/09/24 12:37:28;;;;;;;;;;;;;;;33.14;28.01;98995.44;5015567;28;19983;-85
2023/09/24 12:39:55;;;;;;;;;;;;;;;32.83;28.07;98993.97;5007466;28;19922;-85
2023/09/24 12:42:21;;;;;;;;;;;;;;;32.71;27.91;99002.19;5007816;28;20305;-85
2023/09/24 12:44:51;;;;;;;;;;;;;;;32.64;27.64;98996.00;5006619;28;19921;-85
2023/09/24 12:47:33;;;;;;;;;;;;;;;32.90;28.13;98996.53;5017987;28;19929;-86
2023/09/24 12:50:15;;;;;;;;;;;;;;;32.48;27.57;98996.25;5006330;28;20346;-86
2023/09/24 12:52:50;;;;;;;;;;;;;;;32.46;28.06;98991.06;5001704;28;19973;-85